Relevés horaires Bierset (Belgique)


Relevés horaires à Bierset - Jeudi 19 Déc. 2019
Heure UTC1 Température [°C] Vent [km/h] Hum. [%] Pres.4 [hPa] Visi. [Km] Nébu. [octa] Préc.5 [mm] Cond.
2m. Res. Ros. Dir.2 Vit. Moy. Raf.3
23:00 12.8 11.6 6.0 SSE 13.0 14.8 20.4 63 998.9(-3.0/3h) 30 4/8 -- --
22:00 12.7 11.7 6.2 S 11.1 13.0 20.4 65 1000(-3.0/3h) 30 4/8 -- --
21:00 13.4 12.5 6.6 SSE 11.1 13.0 20.4 63 1000.5(-2.8/3h) 30 4/8 -- --
20:00 13.3 12.4 6.5 S 11.1 13.0 18.5 63 1002(-2.2/3h) 30 7/8 -- --
19:00 13.3 12.4 6.7 S 11.1 11.1 14.8 64 1003.1(-1.6/3h) 30 6/8 -- --
18:00 13.0 12.6 6.5 SSE 7.4 13.0 22.2 65 1003.4(-2.3/3h) 30 7/8 0/12h
--
17:00 12.5 12.4 6.7 SE 5.6 11.1 16.7 68 1004.2(-1.7/3h) 30 7/8 -- --
16:00 13.4 12.8 6.9 SSE 9.3 9.3 16.7 65 1004.7(-2.1/3h) 30 6/8 -- --
15:00 13.8 13.3 6.9 S 9.3 13.0 22.2 63 1005.7(-2.2/3h) 30 6/8 -- --
14:00 14.5 13.9 7.2 SSE 11.1 13.0 18.5 62 1005.8(-2.7/3h) 30 5/8 -- --
13:00 14.5 13.9 7.1 S 11.1 11.1 22.2 61 1006.8(-2.4/3h) 30 4/8 -- --
12:00 14.1 13.6 7.6 S 9.3 11.1 20.4 65 1007.9(-1.4/3h) 30 4/8 0/6h
--
11:00 13.4 12.8 7.6 SSE 9.3 11.1 20.4 68 1008.7(-1.1/3h) 30 3/8 -- --
10:00 12.6 11.6 7.4 SSE 11.1 11.1 18.5 71 1009.3(-0.8/3h) 30 3/8 -- --
09:00 11.7 10.5 7.3 S 11.1 11.1 18.5 74 1009.6(-1.3/3h) 30 3/8 -- --
08:00 11.3 10.3 7.4 SSE 9.3 11.1 18.5 77 1010(-1.1/3h) 30 3/8 -- --
07:00 11.0 9.7 7.0 SSE 11.1 11.1 16.7 76 1010.3(-1.3/3h) 30 3/8 -- --
06:00 11.1 9.8 7.1 S 11.1 11.1 20.4 76 1010.9(-0.9/3h) 40 1/8 0/12h
--
05:00 10.8 9.7 7.3 SSE 9.3 11.1 16.7 79 1011.2(-1.0/3h) 30 4/8 -- --
04:00 11.1 10.1 7.3 S 9.3 11.1 18.5 77 1011.6(-1.0/3h) 30 5/8 -- --
03:00 10.6 9.2 7.4 S 11.1 11.1 18.5 81 1011.9(-1.3/3h) 35 4/8 -- --
02:00 10.5 9.3 7.2 SSE 9.3 9.3 18.5 80 1012.3(-1.4/3h) 30 3/8 -- --
01:00 10.2 9 7.5 S 9.3 9.3 16.7 83 1012.7(-1.2/3h) 30 1/8 -- --
00:00 9.1 8.1 7.2 SSE 7.4 13.0 20.4 88 1013.3(-1.3/3h) 30 0/8 0/6h
0/24h
--

1 Coordinated Universal Time. Actuellement il est 01:00 locale et 23:00 UTC.

2 Le vent souffle depuis la direction indiquée vers la direction oposée.

3 Les rafales max. sont disponible 40 min après l'heure du relevé.

4 Pour les stations d'altitude (plus de 600m) le géopotentiel du niveau le plus proche de la pression obligatoire est indiqué.

5 Les stations disposant d'un diffuseur peuvent indiquer "trace". Cela signifie que des précipitations ont touchés le sol mais que la quantité est inférieure à 0.1 mm.

Récapitulatif de la journée
Température [°C] Vent [km/h] Ensoleillement4 [h] Precipitations totale5 [mm] Pression [Hpa]
Min1 Max.2 Moy.3 Max. Min Max.
6.8 14.6 11.6 22.2 0 h 0 min 0 998.9 1013.3

1 Température minimale relevée entre 18:00 UTC la veille et 18:00 UTC le jour donné.

2 Température maximale relevée entre 06:00 UTC le jour donné et 06:00 UTC le lendemain.

3 Vent moyen de la journée basé sur les relevés horaires.

4 Ensoleillement en heures relevé entre 06:00 UTC la veille et 06:00 UTC le jour donné.

5 Précipitations totales tombées entre 06:00 UTC la jour donné et 06:00 UTC le lendemain.

Graphiques horaires